sensor_id;sensor_type;location;lat;lon;timestamp;P1;durP1;ratioP1;P2;durP2;ratioP2
11490;SDS011;5802;52.832;4.758;2023-11-21T00:02:10;1.00;;;0.70;;
11490;SDS011;5802;52.832;4.758;2023-11-21T00:04:38;0.68;;;0.50;;
11490;SDS011;5802;52.832;4.758;2023-11-21T00:07:04;1.27;;;0.88;;
11490;SDS011;5802;52.832;4.758;2023-11-21T00:09:31;1.10;;;0.68;;
11490;SDS011;5802;52.832;4.758;2023-11-21T00:11:58;2.65;;;1.00;;
11490;SDS011;5802;52.832;4.758;2023-11-21T00:14:25;1.27;;;0.73;;
11490;SDS011;5802;52.832;4.758;2023-11-21T00:16:51;1.48;;;0.80;;
11490;SDS011;5802;52.832;4.758;2023-11-21T00:19:18;2.13;;;0.90;;
11490;SDS011;5802;52.832;4.758;2023-11-21T00:21:46;2.33;;;1.00;;
11490;SDS011;5802;52.832;4.758;2023-11-21T00:24:13;1.15;;;0.77;;
11490;SDS011;5802;52.832;4.758;2023-11-21T00:26:40;1.52;;;0.80;;
11490;SDS011;5802;52.832;4.758;2023-11-21T00:29:06;1.08;;;0.65;;
11490;SDS011;5802;52.832;4.758;2023-11-21T00:31:34;2.08;;;0.93;;
11490;SDS011;5802;52.832;4.758;2023-11-21T00:34:02;1.10;;;0.50;;
11490;SDS011;5802;52.832;4.758;2023-11-21T00:36:29;1.65;;;0.90;;
11490;SDS011;5802;52.832;4.758;2023-11-21T00:38:58;2.38;;;0.77;;
11490;SDS011;5802;52.832;4.758;2023-11-21T00:41:25;1.10;;;0.70;;
11490;SDS011;5802;52.832;4.758;2023-11-21T00:43:52;1.52;;;0.70;;
11490;SDS011;5802;52.832;4.758;2023-11-21T00:46:19;2.38;;;0.80;;
11490;SDS011;5802;52.832;4.758;2023-11-21T00:48:46;1.10;;;0.70;;
11490;SDS011;5802;52.832;4.758;2023-11-21T00:51:12;1.13;;;0.60;;
11490;SDS011;5802;52.832;4.758;2023-11-21T00:53:39;1.40;;;0.68;;
11490;SDS011;5802;52.832;4.758;2023-11-21T00:56:07;1.48;;;0.70;;
11490;SDS011;5802;52.832;4.758;2023-11-21T00:58:34;1.60;;;0.85;;
11490;SDS011;5802;52.832;4.758;2023-11-21T01:01:01;1.17;;;0.70;;
11490;SDS011;5802;52.832;4.758;2023-11-21T01:03:28;1.30;;;0.57;;
11490;SDS011;5802;52.832;4.758;2023-11-21T01:05:55;2.38;;;0.85;;
11490;SDS011;5802;52.832;4.758;2023-11-21T01:08:21;1.13;;;0.60;;
11490;SDS011;5802;52.832;4.758;2023-11-21T01:10:49;1.45;;;0.90;;
11490;SDS011;5802;52.832;4.758;2023-11-21T01:13:17;1.27;;;0.75;;
11490;SDS011;5802;52.832;4.758;2023-11-21T01:15:43;1.33;;;0.65;;
11490;SDS011;5802;52.832;4.758;2023-11-21T01:18:10;4.10;;;0.80;;
11490;SDS011;5802;52.832;4.758;2023-11-21T01:20:37;0.95;;;0.68;;
11490;SDS011;5802;52.832;4.758;2023-11-21T01:23:03;3.70;;;0.80;;
11490;SDS011;5802;52.832;4.758;2023-11-21T01:25:30;1.10;;;0.60;;
11490;SDS011;5802;52.832;4.758;2023-11-21T01:27:57;1.02;;;0.52;;
11490;SDS011;5802;52.832;4.758;2023-11-21T01:30:25;1.10;;;0.57;;
11490;SDS011;5802;52.832;4.758;2023-11-21T01:32:51;1.20;;;0.80;;
11490;SDS011;5802;52.832;4.758;2023-11-21T01:35:18;2.00;;;0.70;;
11490;SDS011;5802;52.832;4.758;2023-11-21T01:37:44;2.03;;;0.93;;
11490;SDS011;5802;52.832;4.758;2023-11-21T01:40:13;1.25;;;0.60;;
11490;SDS011;5802;52.832;4.758;2023-11-21T01:42:40;1.33;;;0.50;;
11490;SDS011;5802;52.832;4.758;2023-11-21T01:45:08;1.05;;;0.70;;
11490;SDS011;5802;52.832;4.758;2023-11-21T01:47:38;0.90;;;0.57;;
11490;SDS011;5802;52.832;4.758;2023-11-21T01:50:07;1.40;;;0.70;;
11490;SDS011;5802;52.832;4.758;2023-11-21T01:52:37;1.35;;;0.70;;
11490;SDS011;5802;52.832;4.758;2023-11-21T01:55:06;0.77;;;0.40;;
11490;SDS011;5802;52.832;4.758;2023-11-21T01:57:34;1.05;;;0.60;;
11490;SDS011;5802;52.832;4.758;2023-11-21T02:00:03;1.70;;;0.75;;
11490;SDS011;5802;52.832;4.758;2023-11-21T02:02:41;1.00;;;0.60;;
11490;SDS011;5802;52.832;4.758;2023-11-21T02:05:08;0.57;;;0.40;;
11490;SDS011;5802;52.832;4.758;2023-11-21T02:07:37;0.68;;;0.38;;
11490;SDS011;5802;52.832;4.758;2023-11-21T02:10:04;0.52;;;0.40;;
11490;SDS011;5802;52.832;4.758;2023-11-21T02:12:32;1.35;;;0.63;;
11490;SDS011;5802;52.832;4.758;2023-11-21T02:14:59;0.77;;;0.50;;
11490;SDS011;5802;52.832;4.758;2023-11-21T02:17:25;1.13;;;0.40;;
11490;SDS011;5802;52.832;4.758;2023-11-21T02:19:53;1.17;;;0.73;;
11490;SDS011;5802;52.832;4.758;2023-11-21T02:22:21;1.67;;;0.45;;
11490;SDS011;5802;52.832;4.758;2023-11-21T02:24:52;0.47;;;0.40;;
11490;SDS011;5802;52.832;4.758;2023-11-21T02:27:19;0.98;;;0.50;;
11490;SDS011;5802;52.832;4.758;2023-11-21T02:29:48;0.57;;;0.40;;
11490;SDS011;5802;52.832;4.758;2023-11-21T02:32:15;0.82;;;0.43;;
11490;SDS011;5802;52.832;4.758;2023-11-21T02:34:44;0.63;;;0.50;;
11490;SDS011;5802;52.832;4.758;2023-11-21T02:37:10;0.80;;;0.55;;
11490;SDS011;5802;52.832;4.758;2023-11-21T02:39:37;0.63;;;0.50;;
11490;SDS011;5802;52.832;4.758;2023-11-21T02:42:05;0.60;;;0.60;;
11490;SDS011;5802;52.832;4.758;2023-11-21T02:44:32;0.85;;;0.45;;
11490;SDS011;5802;52.832;4.758;2023-11-21T02:46:59;0.50;;;0.40;;
11490;SDS011;5802;52.832;4.758;2023-11-21T02:49:26;0.63;;;0.47;;
11490;SDS011;5802;52.832;4.758;2023-11-21T02:51:53;0.60;;;0.45;;
11490;SDS011;5802;52.832;4.758;2023-11-21T02:54:20;1.20;;;0.60;;
11490;SDS011;5802;52.832;4.758;2023-11-21T02:56:47;0.77;;;0.47;;
11490;SDS011;5802;52.832;4.758;2023-11-21T02:59:16;0.93;;;0.40;;
11490;SDS011;5802;52.832;4.758;2023-11-21T03:01:44;1.27;;;0.50;;
11490;SDS011;5802;52.832;4.758;2023-11-21T03:04:11;0.60;;;0.50;;
11490;SDS011;5802;52.832;4.758;2023-11-21T03:06:42;1.00;;;0.60;;
11490;SDS011;5802;52.832;4.758;2023-11-21T03:09:10;1.50;;;0.40;;
11490;SDS011;5802;52.832;4.758;2023-11-21T03:11:38;1.25;;;0.35;;
11490;SDS011;5802;52.832;4.758;2023-11-21T03:14:04;0.47;;;0.40;;
11490;SDS011;5802;52.832;4.758;2023-11-21T03:16:32;0.95;;;0.55;;
11490;SDS011;5802;52.832;4.758;2023-11-21T03:18:59;0.50;;;0.32;;
11490;SDS011;5802;52.832;4.758;2023-11-21T03:21:26;1.67;;;0.40;;
11490;SDS011;5802;52.832;4.758;2023-11-21T03:23:53;0.90;;;0.50;;
11490;SDS011;5802;52.832;4.758;2023-11-21T03:26:19;0.60;;;0.38;;
11490;SDS011;5802;52.832;4.758;2023-11-21T03:28:46;0.52;;;0.38;;
11490;SDS011;5802;52.832;4.758;2023-11-21T03:31:13;0.55;;;0.40;;
11490;SDS011;5802;52.832;4.758;2023-11-21T03:33:42;0.65;;;0.50;;
11490;SDS011;5802;52.832;4.758;2023-11-21T03:36:10;1.13;;;0.43;;
11490;SDS011;5802;52.832;4.758;2023-11-21T03:38:37;0.50;;;0.47;;
11490;SDS011;5802;52.832;4.758;2023-11-21T03:41:04;0.43;;;0.38;;
11490;SDS011;5802;52.832;4.758;2023-11-21T03:43:31;0.20;;;0.20;;
11490;SDS011;5802;52.832;4.758;2023-11-21T03:45:58;0.40;;;0.35;;
11490;SDS011;5802;52.832;4.758;2023-11-21T03:48:25;0.50;;;0.32;;
11490;SDS011;5802;52.832;4.758;2023-11-21T03:50:53;0.73;;;0.52;;
11490;SDS011;5802;52.832;4.758;2023-11-21T03:53:19;0.43;;;0.25;;
11490;SDS011;5802;52.832;4.758;2023-11-21T03:55:46;0.50;;;0.43;;
11490;SDS011;5802;52.832;4.758;2023-11-21T03:58:14;0.38;;;0.35;;
11490;SDS011;5802;52.832;4.758;2023-11-21T04:00:41;0.50;;;0.30;;
11490;SDS011;5802;52.832;4.758;2023-11-21T04:03:07;0.40;;;0.40;;
11490;SDS011;5802;52.832;4.758;2023-11-21T04:05:34;0.70;;;0.47;;
11490;SDS011;5802;52.832;4.758;2023-11-21T04:08:02;0.30;;;0.25;;
11490;SDS011;5802;52.832;4.758;2023-11-21T04:10:29;1.40;;;0.63;;
11490;SDS011;5802;52.832;4.758;2023-11-21T04:12:55;0.95;;;0.40;;
11490;SDS011;5802;52.832;4.758;2023-11-21T04:15:22;0.90;;;0.40;;
11490;SDS011;5802;52.832;4.758;2023-11-21T04:17:49;0.57;;;0.50;;
11490;SDS011;5802;52.832;4.758;2023-11-21T04:20:15;0.85;;;0.40;;
11490;SDS011;5802;52.832;4.758;2023-11-21T04:22:42;0.55;;;0.32;;
11490;SDS011;5802;52.832;4.758;2023-11-21T04:25:12;0.60;;;0.28;;
11490;SDS011;5802;52.832;4.758;2023-11-21T04:27:40;0.68;;;0.43;;
11490;SDS011;5802;52.832;4.758;2023-11-21T04:30:09;0.60;;;0.47;;
11490;SDS011;5802;52.832;4.758;2023-11-21T04:32:36;0.45;;;0.40;;
11490;SDS011;5802;52.832;4.758;2023-11-21T04:35:02;0.45;;;0.20;;
11490;SDS011;5802;52.832;4.758;2023-11-21T04:37:30;0.55;;;0.40;;
11490;SDS011;5802;52.832;4.758;2023-11-21T04:39:56;0.82;;;0.30;;
11490;SDS011;5802;52.832;4.758;2023-11-21T04:42:24;1.30;;;0.52;;
11490;SDS011;5802;52.832;4.758;2023-11-21T04:44:51;0.70;;;0.47;;
11490;SDS011;5802;52.832;4.758;2023-11-21T04:47:18;0.98;;;0.70;;
11490;SDS011;5802;52.832;4.758;2023-11-21T04:49:45;0.38;;;0.30;;
11490;SDS011;5802;52.832;4.758;2023-11-21T04:52:13;0.50;;;0.30;;
11490;SDS011;5802;52.832;4.758;2023-11-21T04:54:39;1.77;;;0.45;;
11490;SDS011;5802;52.832;4.758;2023-11-21T04:57:06;0.63;;;0.60;;
11490;SDS011;5802;52.832;4.758;2023-11-21T04:59:34;0.93;;;0.60;;
11490;SDS011;5802;52.832;4.758;2023-11-21T05:02:01;0.38;;;0.38;;
11490;SDS011;5802;52.832;4.758;2023-11-21T05:04:28;0.40;;;0.38;;
11490;SDS011;5802;52.832;4.758;2023-11-21T05:06:54;0.50;;;0.40;;
11490;SDS011;5802;52.832;4.758;2023-11-21T05:09:21;1.10;;;0.32;;
11490;SDS011;5802;52.832;4.758;2023-11-21T05:11:48;0.80;;;0.43;;
11490;SDS011;5802;52.832;4.758;2023-11-21T05:14:15;1.05;;;0.50;;
11490;SDS011;5802;52.832;4.758;2023-11-21T05:16:44;1.05;;;0.60;;
11490;SDS011;5802;52.832;4.758;2023-11-21T05:19:12;0.47;;;0.47;;
11490;SDS011;5802;52.832;4.758;2023-11-21T05:21:38;1.05;;;0.52;;
11490;SDS011;5802;52.832;4.758;2023-11-21T05:24:05;1.35;;;0.50;;
11490;SDS011;5802;52.832;4.758;2023-11-21T05:26:32;1.83;;;0.70;;
11490;SDS011;5802;52.832;4.758;2023-11-21T05:28:59;0.95;;;0.43;;
11490;SDS011;5802;52.832;4.758;2023-11-21T05:31:26;1.08;;;0.55;;
11490;SDS011;5802;52.832;4.758;2023-11-21T05:33:54;0.80;;;0.40;;
11490;SDS011;5802;52.832;4.758;2023-11-21T05:36:21;0.52;;;0.47;;
11490;SDS011;5802;52.832;4.758;2023-11-21T05:38:48;1.02;;;0.70;;
11490;SDS011;5802;52.832;4.758;2023-11-21T05:41:15;0.90;;;0.43;;
11490;SDS011;5802;52.832;4.758;2023-11-21T05:43:42;1.58;;;0.50;;
11490;SDS011;5802;52.832;4.758;2023-11-21T05:46:08;0.73;;;0.52;;
11490;SDS011;5802;52.832;4.758;2023-11-21T05:48:35;1.10;;;0.50;;
11490;SDS011;5802;52.832;4.758;2023-11-21T05:51:04;1.00;;;0.40;;
11490;SDS011;5802;52.832;4.758;2023-11-21T05:53:33;2.13;;;0.40;;
11490;SDS011;5802;52.832;4.758;2023-11-21T05:56:00;0.40;;;0.40;;
11490;SDS011;5802;52.832;4.758;2023-11-21T05:58:26;0.98;;;0.63;;
11490;SDS011;5802;52.832;4.758;2023-11-21T06:00:53;1.25;;;0.60;;
11490;SDS011;5802;52.832;4.758;2023-11-21T06:03:20;1.02;;;0.75;;
11490;SDS011;5802;52.832;4.758;2023-11-21T06:05:48;0.98;;;0.60;;
11490;SDS011;5802;52.832;4.758;2023-11-21T06:08:16;1.30;;;0.63;;
11490;SDS011;5802;52.832;4.758;2023-11-21T06:10:43;0.95;;;0.50;;
11490;SDS011;5802;52.832;4.758;2023-11-21T06:13:14;0.90;;;0.50;;
11490;SDS011;5802;52.832;4.758;2023-11-21T06:15:41;0.98;;;0.50;;
11490;SDS011;5802;52.832;4.758;2023-11-21T06:18:07;1.13;;;0.47;;
11490;SDS011;5802;52.832;4.758;2023-11-21T06:20:35;0.52;;;0.50;;
11490;SDS011;5802;52.832;4.758;2023-11-21T06:23:03;0.60;;;0.50;;
11490;SDS011;5802;52.832;4.758;2023-11-21T06:25:32;0.70;;;0.40;;
11490;SDS011;5802;52.832;4.758;2023-11-21T06:28:01;0.70;;;0.50;;
11490;SDS011;5802;52.832;4.758;2023-11-21T06:30:28;1.27;;;0.75;;
11490;SDS011;5802;52.832;4.758;2023-11-21T06:32:54;1.17;;;0.50;;
11490;SDS011;5802;52.832;4.758;2023-11-21T06:35:21;0.70;;;0.40;;
11490;SDS011;5802;52.832;4.758;2023-11-21T06:37:48;0.95;;;0.60;;
11490;SDS011;5802;52.832;4.758;2023-11-21T06:40:16;1.48;;;0.70;;
11490;SDS011;5802;52.832;4.758;2023-11-21T06:42:44;0.77;;;0.60;;
11490;SDS011;5802;52.832;4.758;2023-11-21T06:45:12;0.85;;;0.60;;
11490;SDS011;5802;52.832;4.758;2023-11-21T06:47:39;1.80;;;0.70;;
11490;SDS011;5802;52.832;4.758;2023-11-21T06:50:06;0.40;;;0.40;;
11490;SDS011;5802;52.832;4.758;2023-11-21T06:52:34;1.30;;;0.47;;
11490;SDS011;5802;52.832;4.758;2023-11-21T06:55:00;0.82;;;0.47;;
11490;SDS011;5802;52.832;4.758;2023-11-21T06:57:27;0.55;;;0.50;;
11490;SDS011;5802;52.832;4.758;2023-11-21T06:59:55;1.80;;;0.50;;
11490;SDS011;5802;52.832;4.758;2023-11-21T07:02:22;0.85;;;0.55;;
11490;SDS011;5802;52.832;4.758;2023-11-21T07:04:49;1.48;;;0.60;;
11490;SDS011;5802;52.832;4.758;2023-11-21T07:07:15;0.75;;;0.50;;
11490;SDS011;5802;52.832;4.758;2023-11-21T07:09:42;0.55;;;0.40;;
11490;SDS011;5802;52.832;4.758;2023-11-21T07:12:09;0.85;;;0.60;;
11490;SDS011;5802;52.832;4.758;2023-11-21T07:14:36;0.90;;;0.75;;
11490;SDS011;5802;52.832;4.758;2023-11-21T07:17:05;1.77;;;0.70;;
11490;SDS011;5802;52.832;4.758;2023-11-21T07:19:32;1.02;;;0.60;;
11490;SDS011;5802;52.832;4.758;2023-11-21T07:21:59;1.10;;;0.68;;
11490;SDS011;5802;52.832;4.758;2023-11-21T07:24:25;1.05;;;0.63;;
11490;SDS011;5802;52.832;4.758;2023-11-21T07:26:52;0.40;;;0.40;;
11490;SDS011;5802;52.832;4.758;2023-11-21T07:29:21;1.65;;;0.75;;
11490;SDS011;5802;52.832;4.758;2023-11-21T07:31:50;1.40;;;0.50;;
11490;SDS011;5802;52.832;4.758;2023-11-21T07:34:18;0.50;;;0.50;;
11490;SDS011;5802;52.832;4.758;2023-11-21T07:36:45;2.08;;;0.70;;
11490;SDS011;5802;52.832;4.758;2023-11-21T07:39:12;1.15;;;0.60;;
11490;SDS011;5802;52.832;4.758;2023-11-21T07:41:40;0.63;;;0.40;;
11490;SDS011;5802;52.832;4.758;2023-11-21T07:44:13;1.17;;;0.68;;
11490;SDS011;5802;52.832;4.758;2023-11-21T07:46:40;0.82;;;0.60;;
11490;SDS011;5802;52.832;4.758;2023-11-21T07:49:07;0.75;;;0.50;;
11490;SDS011;5802;52.832;4.758;2023-11-21T07:51:35;1.33;;;0.80;;
11490;SDS011;5802;52.832;4.758;2023-11-21T07:54:02;1.25;;;0.60;;
11490;SDS011;5802;52.832;4.758;2023-11-21T07:56:29;1.05;;;0.60;;
11490;SDS011;5802;52.832;4.758;2023-11-21T07:58:57;0.47;;;0.40;;
11490;SDS011;5802;52.832;4.758;2023-11-21T08:01:24;0.98;;;0.70;;
11490;SDS011;5802;52.832;4.758;2023-11-21T08:03:53;1.35;;;0.70;;
11490;SDS011;5802;52.832;4.758;2023-11-21T08:06:22;2.38;;;0.90;;
11490;SDS011;5802;52.832;4.758;2023-11-21T08:08:50;2.45;;;0.98;;
11490;SDS011;5802;52.832;4.758;2023-11-21T08:11:16;1.77;;;1.08;;
11490;SDS011;5802;52.832;4.758;2023-11-21T08:13:44;2.17;;;1.00;;
11490;SDS011;5802;52.832;4.758;2023-11-21T08:16:11;2.28;;;1.30;;
11490;SDS011;5802;52.832;4.758;2023-11-21T08:18:38;4.13;;;1.30;;
11490;SDS011;5802;52.832;4.758;2023-11-21T08:21:05;1.83;;;1.20;;
11490;SDS011;5802;52.832;4.758;2023-11-21T08:23:32;4.38;;;1.13;;
11490;SDS011;5802;52.832;4.758;2023-11-21T08:26:01;1.77;;;1.20;;
11490;SDS011;5802;52.832;4.758;2023-11-21T08:28:28;3.95;;;1.10;;
11490;SDS011;5802;52.832;4.758;2023-11-21T08:30:55;2.05;;;1.10;;
11490;SDS011;5802;52.832;4.758;2023-11-21T08:33:21;2.03;;;1.05;;
11490;SDS011;5802;52.832;4.758;2023-11-21T08:35:48;1.17;;;0.95;;
11490;SDS011;5802;52.832;4.758;2023-11-21T08:38:15;1.67;;;1.00;;
11490;SDS011;5802;52.832;4.758;2023-11-21T08:40:42;1.80;;;0.93;;
11490;SDS011;5802;52.832;4.758;2023-11-21T08:43:10;3.13;;;0.90;;
11490;SDS011;5802;52.832;4.758;2023-11-21T08:45:39;1.77;;;0.80;;
11490;SDS011;5802;52.832;4.758;2023-11-21T08:48:06;2.55;;;0.88;;
11490;SDS011;5802;52.832;4.758;2023-11-21T08:50:33;1.40;;;0.85;;
11490;SDS011;5802;52.832;4.758;2023-11-21T08:53:00;1.80;;;0.70;;
11490;SDS011;5802;52.832;4.758;2023-11-21T08:55:26;0.77;;;0.57;;
11490;SDS011;5802;52.832;4.758;2023-11-21T08:57:53;1.58;;;0.85;;
11490;SDS011;5802;52.832;4.758;2023-11-21T09:00:21;1.10;;;0.90;;
11490;SDS011;5802;52.832;4.758;2023-11-21T09:02:48;0.88;;;0.88;;
11490;SDS011;5802;52.832;4.758;2023-11-21T09:05:15;1.55;;;0.90;;
11490;SDS011;5802;52.832;4.758;2023-11-21T09:07:42;0.88;;;0.57;;
11490;SDS011;5802;52.832;4.758;2023-11-21T09:10:11;2.55;;;0.80;;
11490;SDS011;5802;52.832;4.758;2023-11-21T09:12:39;1.25;;;0.68;;
11490;SDS011;5802;52.832;4.758;2023-11-21T09:15:08;0.80;;;0.68;;
11490;SDS011;5802;52.832;4.758;2023-11-21T09:17:38;0.95;;;0.63;;
11490;SDS011;5802;52.832;4.758;2023-11-21T09:20:05;1.17;;;0.90;;
11490;SDS011;5802;52.832;4.758;2023-11-21T09:22:35;0.93;;;0.57;;
11490;SDS011;5802;52.832;4.758;2023-11-21T09:25:01;1.63;;;0.70;;
11490;SDS011;5802;52.832;4.758;2023-11-21T09:27:30;0.75;;;0.60;;
11490;SDS011;5802;52.832;4.758;2023-11-21T09:29:57;1.05;;;0.52;;
11490;SDS011;5802;52.832;4.758;2023-11-21T09:32:24;1.05;;;0.63;;
11490;SDS011;5802;52.832;4.758;2023-11-21T09:34:52;0.80;;;0.73;;
11490;SDS011;5802;52.832;4.758;2023-11-21T09:37:20;0.88;;;0.70;;
11490;SDS011;5802;52.832;4.758;2023-11-21T09:39:47;0.85;;;0.60;;
11490;SDS011;5802;52.832;4.758;2023-11-21T09:42:15;0.90;;;0.60;;
11490;SDS011;5802;52.832;4.758;2023-11-21T09:44:48;1.55;;;0.90;;
11490;SDS011;5802;52.832;4.758;2023-11-21T09:47:23;1.48;;;0.80;;
11490;SDS011;5802;52.832;4.758;2023-11-21T09:49:52;1.55;;;0.77;;
11490;SDS011;5802;52.832;4.758;2023-11-21T09:52:24;1.67;;;0.73;;
11490;SDS011;5802;52.832;4.758;2023-11-21T09:54:52;1.33;;;0.68;;
11490;SDS011;5802;52.832;4.758;2023-11-21T09:57:22;0.70;;;0.60;;
11490;SDS011;5802;52.832;4.758;2023-11-21T09:59:50;3.33;;;0.60;;
11490;SDS011;5802;52.832;4.758;2023-11-21T10:02:20;1.35;;;0.80;;
11490;SDS011;5802;52.832;4.758;2023-11-21T10:04:52;0.88;;;0.60;;
11490;SDS011;5802;52.832;4.758;2023-11-21T10:07:19;2.13;;;0.70;;
11490;SDS011;5802;52.832;4.758;2023-11-21T10:09:47;0.93;;;0.70;;
11490;SDS011;5802;52.832;4.758;2023-11-21T10:12:14;2.92;;;0.68;;
11490;SDS011;5802;52.832;4.758;2023-11-21T10:14:41;0.93;;;0.70;;
11490;SDS011;5802;52.832;4.758;2023-11-21T10:17:10;0.80;;;0.70;;
11490;SDS011;5802;52.832;4.758;2023-11-21T10:19:38;0.85;;;0.60;;
11490;SDS011;5802;52.832;4.758;2023-11-21T10:22:06;0.55;;;0.50;;
11490;SDS011;5802;52.832;4.758;2023-11-21T10:24:34;1.17;;;0.60;;
11490;SDS011;5802;52.832;4.758;2023-11-21T10:27:01;1.02;;;0.57;;
11490;SDS011;5802;52.832;4.758;2023-11-21T10:29:29;1.13;;;0.70;;
11490;SDS011;5802;52.832;4.758;2023-11-21T10:32:00;1.25;;;0.60;;
11490;SDS011;5802;52.832;4.758;2023-11-21T10:34:28;2.58;;;0.63;;
11490;SDS011;5802;52.832;4.758;2023-11-21T10:36:55;4.85;;;0.88;;
11490;SDS011;5802;52.832;4.758;2023-11-21T10:39:24;10.15;;;4.65;;
11490;SDS011;5802;52.832;4.758;2023-11-21T10:41:55;16.75;;;9.05;;
11490;SDS011;5802;52.832;4.758;2023-11-21T10:44:22;14.35;;;9.10;;
11490;SDS011;5802;52.832;4.758;2023-11-21T10:46:49;19.00;;;11.25;;
11490;SDS011;5802;52.832;4.758;2023-11-21T10:49:20;21.45;;;10.73;;
11490;SDS011;5802;52.832;4.758;2023-11-21T10:51:49;24.48;;;12.80;;
11490;SDS011;5802;52.832;4.758;2023-11-21T10:54:18;19.90;;;12.07;;
11490;SDS011;5802;52.832;4.758;2023-11-21T10:56:48;18.60;;;11.95;;
11490;SDS011;5802;52.832;4.758;2023-11-21T10:59:16;25.13;;;14.85;;
11490;SDS011;5802;52.832;4.758;2023-11-21T11:01:45;31.30;;;17.52;;
11490;SDS011;5802;52.832;4.758;2023-11-21T11:04:14;30.50;;;18.77;;
11490;SDS011;5802;52.832;4.758;2023-11-21T11:06:44;38.13;;;20.58;;
11490;SDS011;5802;52.832;4.758;2023-11-21T11:09:13;39.65;;;21.35;;
11490;SDS011;5802;52.832;4.758;2023-11-21T11:11:41;40.13;;;21.85;;
11490;SDS011;5802;52.832;4.758;2023-11-21T11:14:11;35.53;;;20.98;;
11490;SDS011;5802;52.832;4.758;2023-11-21T11:16:38;36.00;;;21.77;;
11490;SDS011;5802;52.832;4.758;2023-11-21T11:19:08;33.58;;;20.67;;
11490;SDS011;5802;52.832;4.758;2023-11-21T11:21:38;42.20;;;21.45;;
11490;SDS011;5802;52.832;4.758;2023-11-21T11:24:16;38.70;;;21.15;;
11490;SDS011;5802;52.832;4.758;2023-11-21T11:27:06;36.28;;;21.25;;
11490;SDS011;5802;52.832;4.758;2023-11-21T11:29:49;34.03;;;20.63;;
11490;SDS011;5802;52.832;4.758;2023-11-21T11:32:32;32.97;;;19.42;;
11490;SDS011;5802;52.832;4.758;2023-11-21T11:35:07;33.75;;;19.90;;
11490;SDS011;5802;52.832;4.758;2023-11-21T11:37:43;31.17;;;17.98;;
11490;SDS011;5802;52.832;4.758;2023-11-21T11:40:11;30.10;;;18.60;;
11490;SDS011;5802;52.832;4.758;2023-11-21T11:42:38;27.05;;;17.55;;
11490;SDS011;5802;52.832;4.758;2023-11-21T11:45:18;32.35;;;18.27;;
11490;SDS011;5802;52.832;4.758;2023-11-21T11:47:45;31.85;;;16.25;;
11490;SDS011;5802;52.832;4.758;2023-11-21T11:50:14;28.10;;;16.98;;
11490;SDS011;5802;52.832;4.758;2023-11-21T11:52:42;29.13;;;16.65;;
11490;SDS011;5802;52.832;4.758;2023-11-21T11:55:10;28.60;;;16.40;;
11490;SDS011;5802;52.832;4.758;2023-11-21T11:57:38;25.80;;;15.90;;
11490;SDS011;5802;52.832;4.758;2023-11-21T12:00:09;25.70;;;14.75;;
11490;SDS011;5802;52.832;4.758;2023-11-21T12:02:42;22.42;;;13.82;;
11490;SDS011;5802;52.832;4.758;2023-11-21T12:05:11;23.60;;;13.70;;
11490;SDS011;5802;52.832;4.758;2023-11-21T12:07:41;23.20;;;14.07;;
11490;SDS011;5802;52.832;4.758;2023-11-21T12:10:10;23.13;;;13.82;;
11490;SDS011;5802;52.832;4.758;2023-11-21T12:12:41;20.55;;;12.93;;
11490;SDS011;5802;52.832;4.758;2023-11-21T12:15:09;21.95;;;13.95;;
11490;SDS011;5802;52.832;4.758;2023-11-21T12:17:37;20.77;;;12.55;;
11490;SDS011;5802;52.832;4.758;2023-11-21T12:20:06;17.73;;;11.65;;
11490;SDS011;5802;52.832;4.758;2023-11-21T12:22:42;21.45;;;11.60;;
11490;SDS011;5802;52.832;4.758;2023-11-21T12:25:12;19.50;;;11.52;;
11490;SDS011;5802;52.832;4.758;2023-11-21T12:27:41;18.30;;;11.43;;
11490;SDS011;5802;52.832;4.758;2023-11-21T14:26:05;6.13;;;3.88;;
11490;SDS011;5802;52.832;4.758;2023-11-21T14:31:15;5.70;;;3.60;;
11490;SDS011;5802;52.832;4.758;2023-11-21T14:33:42;4.63;;;3.13;;
11490;SDS011;5802;52.832;4.758;2023-11-21T14:36:10;4.57;;;3.13;;
11490;SDS011;5802;52.832;4.758;2023-11-21T14:38:37;4.90;;;3.20;;
11490;SDS011;5802;52.832;4.758;2023-11-21T14:41:06;5.22;;;3.78;;
11490;SDS011;5802;52.832;4.758;2023-11-21T14:43:33;4.57;;;3.25;;
11490;SDS011;5802;52.832;4.758;2023-11-21T14:46:00;4.75;;;3.03;;
11490;SDS011;5802;52.832;4.758;2023-11-21T14:48:28;4.30;;;3.45;;
11490;SDS011;5802;52.832;4.758;2023-11-21T14:51:07;3.70;;;2.85;;
11490;SDS011;5802;52.832;4.758;2023-11-21T14:53:52;4.60;;;3.20;;
11490;SDS011;5802;52.832;4.758;2023-11-21T14:56:20;6.45;;;3.30;;
11490;SDS011;5802;52.832;4.758;2023-11-21T14:58:51;4.68;;;3.08;;
11490;SDS011;5802;52.832;4.758;2023-11-21T15:01:18;4.72;;;2.88;;
11490;SDS011;5802;52.832;4.758;2023-11-21T15:03:55;3.45;;;2.67;;
11490;SDS011;5802;52.832;4.758;2023-11-21T15:06:21;4.82;;;3.10;;
11490;SDS011;5802;52.832;4.758;2023-11-21T15:08:55;4.32;;;2.47;;
11490;SDS011;5802;52.832;4.758;2023-11-21T15:11:54;3.50;;;2.72;;
11490;SDS011;5802;52.832;4.758;2023-11-21T15:14:27;4.25;;;2.70;;
11490;SDS011;5802;52.832;4.758;2023-11-21T15:16:56;3.22;;;2.60;;
11490;SDS011;5802;52.832;4.758;2023-11-21T15:19:24;3.75;;;2.78;;
11490;SDS011;5802;52.832;4.758;2023-11-21T15:21:51;3.80;;;2.50;;
11490;SDS011;5802;52.832;4.758;2023-11-21T15:24:18;3.58;;;2.80;;
11490;SDS011;5802;52.832;4.758;2023-11-21T15:26:45;3.67;;;2.50;;
11490;SDS011;5802;52.832;4.758;2023-11-21T15:29:17;3.17;;;2.40;;
11490;SDS011;5802;52.832;4.758;2023-11-21T15:31:45;5.13;;;2.47;;
11490;SDS011;5802;52.832;4.758;2023-11-21T15:34:13;3.40;;;2.47;;
11490;SDS011;5802;52.832;4.758;2023-11-21T15:36:40;4.25;;;2.25;;
11490;SDS011;5802;52.832;4.758;2023-11-21T15:39:07;3.33;;;2.50;;
11490;SDS011;5802;52.832;4.758;2023-11-21T15:41:35;3.25;;;2.30;;
11490;SDS011;5802;52.832;4.758;2023-11-21T15:44:03;3.10;;;1.92;;
11490;SDS011;5802;52.832;4.758;2023-11-21T15:46:33;3.42;;;2.15;;
11490;SDS011;5802;52.832;4.758;2023-11-21T15:49:00;2.92;;;2.13;;
11490;SDS011;5802;52.832;4.758;2023-11-21T15:51:29;3.83;;;2.28;;
11490;SDS011;5802;52.832;4.758;2023-11-21T15:53:56;4.22;;;1.92;;
11490;SDS011;5802;52.832;4.758;2023-11-21T15:56:23;2.00;;;1.75;;
11490;SDS011;5802;52.832;4.758;2023-11-21T15:58:49;3.45;;;1.83;;
11490;SDS011;5802;52.832;4.758;2023-11-21T16:01:17;3.78;;;2.17;;
11490;SDS011;5802;52.832;4.758;2023-11-21T16:03:46;2.20;;;1.80;;
11490;SDS011;5802;52.832;4.758;2023-11-21T16:06:13;3.72;;;2.17;;
11490;SDS011;5802;52.832;4.758;2023-11-21T16:08:40;2.58;;;2.30;;
11490;SDS011;5802;52.832;4.758;2023-11-21T16:11:07;2.55;;;1.98;;
11490;SDS011;5802;52.832;4.758;2023-11-21T16:13:34;2.50;;;1.95;;
11490;SDS011;5802;52.832;4.758;2023-11-21T16:16:00;2.22;;;1.75;;
11490;SDS011;5802;52.832;4.758;2023-11-21T16:18:27;2.00;;;1.80;;
11490;SDS011;5802;52.832;4.758;2023-11-21T16:20:55;2.50;;;1.73;;
11490;SDS011;5802;52.832;4.758;2023-11-21T16:23:22;3.17;;;2.00;;
11490;SDS011;5802;52.832;4.758;2023-11-21T16:25:48;4.63;;;1.80;;
11490;SDS011;5802;52.832;4.758;2023-11-21T16:28:20;2.22;;;1.67;;
11490;SDS011;5802;52.832;4.758;2023-11-21T16:30:47;2.47;;;1.60;;
11490;SDS011;5802;52.832;4.758;2023-11-21T16:33:13;2.88;;;1.75;;
11490;SDS011;5802;52.832;4.758;2023-11-21T16:35:40;2.53;;;1.88;;
11490;SDS011;5802;52.832;4.758;2023-11-21T16:38:08;3.25;;;1.80;;
11490;SDS011;5802;52.832;4.758;2023-11-21T16:40:35;4.78;;;1.60;;
11490;SDS011;5802;52.832;4.758;2023-11-21T16:43:02;2.10;;;1.90;;
11490;SDS011;5802;52.832;4.758;2023-11-21T16:45:28;1.70;;;1.50;;
11490;SDS011;5802;52.832;4.758;2023-11-21T16:47:55;2.70;;;1.73;;
11490;SDS011;5802;52.832;4.758;2023-11-21T16:50:22;1.95;;;1.58;;
11490;SDS011;5802;52.832;4.758;2023-11-21T16:52:50;1.95;;;1.67;;
11490;SDS011;5802;52.832;4.758;2023-11-21T16:55:18;2.85;;;1.70;;
11490;SDS011;5802;52.832;4.758;2023-11-21T16:57:45;2.40;;;1.58;;
11490;SDS011;5802;52.832;4.758;2023-11-21T17:00:12;2.72;;;1.90;;
11490;SDS011;5802;52.832;4.758;2023-11-21T17:02:38;2.47;;;1.77;;